^^
Meteo Knjazevac Station Historical Data
Daily Summary for April 24, 2021 Units:  Both    English   Metric
Daily Weekly Monthly Yearly Custom
  High: Low: Average:
Temperature: 62.1 °F /  16.7 °C 55.4 °F /  13 °C 58.4 °F /  14.7 °C
Dew Point: 58.6 °F /  14.8 °C 54 °F /  12.2 °C 56.2 °F /  13.4 °C
Humidity: 96% 88% 92%
Wind Speed: 2mph /  3.2km/h - 0.5mph /  0.8km/h
Wind Gust: 4mph /  6.4km/h - -
Wind- - West
Pressure: 30.08 in /  1018.5 hPa 30.07 in /  1018.2 hPa -
Precipitation: 0.00 in /  0 mm    
Historical Graphs
 
 
Tabular Data for April 24, 2021
Time Temperature Dew Point Pressure Wind Wind Speed Wind Gust Humidity Rainfall Rate (Hourly) solar Conditions
00:00 62.1 °F /  16.7 °C 58.5 °F /  14.7 °C 30.08in /  1018.5hPa Calm   1mph /  1.6km/h 88% 0.00in /  0mm 0 W/m2
00:10 61.9 °F /  16.6 °C 58.6 °F /  14.8 °C 30.08in /  1018.5hPa Calm   1mph /  1.6km/h 89% 0.00in /  0mm 0 W/m2
00:20 61.5 °F /  16.4 °C 58.2 °F /  14.6 °C 30.08in /  1018.5hPa Calm   1mph /  1.6km/h 89% 0.00in /  0mm 0 W/m2
00:30 61.3 °F /  16.3 °C 58 °F /  14.4 °C 30.08in /  1018.5hPa Calm   1mph /  1.6km/h 89% 0.00in /  0mm 0 W/m2
00:40 61 °F /  16.1 °C 57.7 °F /  14.3 °C 30.08in /  1018.5hPa Calm   1mph /  1.6km/h 89% 0.00in /  0mm 0 W/m2
00:50 60.6 °F /  15.9 °C 57.6 °F /  14.2 °C 30.08in /  1018.5hPa Calm   1mph /  1.6km/h 90% 0.00in /  0mm 0 W/m2
01:00 60.3 °F /  15.7 °C 57.3 °F /  14.1 °C 30.08in /  1018.5hPa Calm   1mph /  1.6km/h 90% 0.00in /  0mm 0 W/m2
01:10 60.3 °F /  15.7 °C 57.3 °F /  14.1 °C 30.08in /  1018.5hPa Calm   2mph /  3.2km/h 90% 0.00in /  0mm 0 W/m2
01:20 60.1 °F /  15.6 °C 57.1 °F /  13.9 °C 30.08in /  1018.5hPa Calm   2mph /  3.2km/h 90% 0.00in /  0mm 0 W/m2
01:30 59.9 °F /  15.5 °C 57 °F /  13.9 °C 30.08in /  1018.5hPa Calm   1mph /  1.6km/h 90% 0.00in /  0mm 0 W/m2
01:40 59.5 °F /  15.3 °C 56.9 °F /  13.8 °C 30.07in /  1018.2hPa Calm   1mph /  1.6km/h 91% 0.00in /  0mm 0 W/m2
01:50 59.4 °F /  15.2 °C 56.7 °F /  13.7 °C 30.07in /  1018.2hPa Calm   2mph /  3.2km/h 91% 0.00in /  0mm 0 W/m2
02:00 59 °F /  15 °C 56.4 °F /  13.6 °C 30.07in /  1018.2hPa Calm   1mph /  1.6km/h 91% 0.00in /  0mm 0 W/m2
02:10 58.8 °F /  14.9 °C 56.8 °F /  13.8 °C 30.07in /  1018.2hPa Calm   1mph /  1.6km/h 93% 0.00in /  0mm 0 W/m2
02:20 58.6 °F /  14.8 °C 56.3 °F /  13.5 °C 30.07in /  1018.2hPa Calm   1mph /  1.6km/h 92% 0.00in /  0mm 0 W/m2
02:30 58.3 °F /  14.6 °C 56.3 °F /  13.5 °C 30.07in /  1018.2hPa West 1mph /  1.6km/h 2mph /  3.2km/h 93% 0.00in /  0mm 0 W/m2
02:40 57.7 °F /  14.3 °C 55.7 °F /  13.2 °C 30.08in /  1018.5hPa NW 1mph /  1.6km/h 2mph /  3.2km/h 93% 0.00in /  0mm 0 W/m2
02:50 57.4 °F /  14.1 °C 55.4 °F /  13 °C 30.08in /  1018.5hPa Calm   2mph /  3.2km/h 93% 0.00in /  0mm 0 W/m2
03:00 57.4 °F /  14.1 °C 55.7 °F /  13.2 °C 30.08in /  1018.5hPa Calm   2mph /  3.2km/h 94% 0.00in /  0mm 0 W/m2
03:10 57.2 °F /  14 °C 55.5 °F /  13.1 °C 30.08in /  1018.5hPa Calm   1mph /  1.6km/h 94% 0.00in /  0mm 0 W/m2
03:20 56.8 °F /  13.8 °C 55.1 °F /  12.8 °C 30.08in /  1018.5hPa Calm   1mph /  1.6km/h 94% 0.00in /  0mm 0 W/m2
03:30 56.8 °F /  13.8 °C 55.1 °F /  12.8 °C 30.08in /  1018.5hPa NNW 1mph /  1.6km/h 2mph /  3.2km/h 94% 0.00in /  0mm 0 W/m2
03:40 56.8 °F /  13.8 °C 55.4 °F /  13 °C 30.08in /  1018.5hPa West 1mph /  1.6km/h 3mph /  4.8km/h 95% 0.00in /  0mm 0 W/m2
03:50 56.7 °F /  13.7 °C 55.2 °F /  12.9 °C 30.07in /  1018.2hPa West 1mph /  1.6km/h 2mph /  3.2km/h 95% 0.00in /  0mm 0 W/m2
04:00 56.4 °F /  13.6 °C 55 °F /  12.8 °C 30.08in /  1018.5hPa WSW 1mph /  1.6km/h 2mph /  3.2km/h 95% 0.00in /  0mm 0 W/m2
04:10 56.1 °F /  13.4 °C 54.7 °F /  12.6 °C 30.08in /  1018.5hPa WSW 1mph /  1.6km/h 2mph /  3.2km/h 95% 0.00in /  0mm 0 W/m2
04:20 55.7 °F /  13.2 °C 54.3 °F /  12.4 °C 30.08in /  1018.5hPa West 2mph /  3.2km/h 3mph /  4.8km/h 95% 0.00in /  0mm 0 W/m2
04:30 55.4 °F /  13 °C 54 °F /  12.2 °C 30.08in /  1018.5hPa West 2mph /  3.2km/h 4mph /  6.4km/h 95% 0.00in /  0mm 0 W/m2
04:40 55.4 °F /  13 °C 54.3 °F /  12.4 °C 30.08in /  1018.5hPa West 2mph /  3.2km/h 4mph /  6.4km/h 96% 0.00in /  0mm 0 W/m2
04:50 55.6 °F /  13.1 °C 54.5 °F /  12.5 °C 30.08in /  1018.5hPa West 2mph /  3.2km/h 3mph /  4.8km/h 96% 0.00in /  0mm 0 W/m2
05:00 55.5 °F /  13.1 °C 54.4 °F /  12.4 °C 30.08in /  1018.5hPa West 1mph /  1.6km/h 3mph /  4.8km/h 96% 0.00in /  0mm 0 W/m2
Knjazevac, Serbia
Compliments of Weather Underground - 2 mb